sensor_id;sensor_type;location;lat;lon;timestamp;P1;durP1;ratioP1;P2;durP2;ratioP2
49840;SDS011;35738;49.890;5.930;2023-07-31T00:01:32;5.82;;;3.17;;
49840;SDS011;35738;49.890;5.930;2023-07-31T00:03:58;5.22;;;3.40;;
49840;SDS011;35738;49.890;5.930;2023-07-31T00:06:25;6.00;;;3.55;;
49840;SDS011;35738;49.890;5.930;2023-07-31T00:08:52;4.68;;;3.15;;
49840;SDS011;35738;49.890;5.930;2023-07-31T00:11:18;4.40;;;3.30;;
49840;SDS011;35738;49.890;5.930;2023-07-31T00:13:45;4.70;;;3.17;;
49840;SDS011;35738;49.890;5.930;2023-07-31T00:16:11;6.30;;;3.63;;
49840;SDS011;35738;49.890;5.930;2023-07-31T00:18:38;9.00;;;3.53;;
49840;SDS011;35738;49.890;5.930;2023-07-31T00:21:04;7.38;;;3.88;;
49840;SDS011;35738;49.890;5.930;2023-07-31T00:23:31;4.50;;;3.50;;
49840;SDS011;35738;49.890;5.930;2023-07-31T00:25:58;5.60;;;3.38;;
49840;SDS011;35738;49.890;5.930;2023-07-31T00:28:24;6.40;;;3.65;;
49840;SDS011;35738;49.890;5.930;2023-07-31T00:30:51;6.63;;;3.60;;
49840;SDS011;35738;49.890;5.930;2023-07-31T00:33:18;7.30;;;3.65;;
49840;SDS011;35738;49.890;5.930;2023-07-31T00:35:44;5.70;;;3.40;;
49840;SDS011;35738;49.890;5.930;2023-07-31T00:38:11;7.97;;;3.63;;
49840;SDS011;35738;49.890;5.930;2023-07-31T00:40:37;8.18;;;3.80;;
49840;SDS011;35738;49.890;5.930;2023-07-31T00:43:04;7.47;;;4.35;;
49840;SDS011;35738;49.890;5.930;2023-07-31T00:45:31;5.95;;;3.75;;
49840;SDS011;35738;49.890;5.930;2023-07-31T00:47:59;8.25;;;3.90;;
49840;SDS011;35738;49.890;5.930;2023-07-31T00:50:25;5.47;;;3.40;;
49840;SDS011;35738;49.890;5.930;2023-07-31T00:52:54;7.10;;;3.85;;
49840;SDS011;35738;49.890;5.930;2023-07-31T00:55:21;8.90;;;4.25;;
49840;SDS011;35738;49.890;5.930;2023-07-31T00:57:48;6.05;;;3.80;;
49840;SDS011;35738;49.890;5.930;2023-07-31T01:00:16;6.72;;;3.63;;
49840;SDS011;35738;49.890;5.930;2023-07-31T01:02:43;7.30;;;3.80;;
49840;SDS011;35738;49.890;5.930;2023-07-31T01:05:10;9.50;;;3.85;;
49840;SDS011;35738;49.890;5.930;2023-07-31T01:10:15;9.30;;;3.63;;
49840;SDS011;35738;49.890;5.930;2023-07-31T01:12:47;10.60;;;4.20;;
49840;SDS011;35738;49.890;5.930;2023-07-31T01:15:14;6.13;;;3.72;;
49840;SDS011;35738;49.890;5.930;2023-07-31T01:17:41;9.35;;;4.28;;
49840;SDS011;35738;49.890;5.930;2023-07-31T01:20:11;8.15;;;4.38;;
49840;SDS011;35738;49.890;5.930;2023-07-31T01:28:44;10.10;;;4.50;;
49840;SDS011;35738;49.890;5.930;2023-07-31T01:31:22;9.00;;;4.50;;
49840;SDS011;35738;49.890;5.930;2023-07-31T01:33:52;7.53;;;4.80;;
49840;SDS011;35738;49.890;5.930;2023-07-31T01:36:20;8.77;;;4.95;;
49840;SDS011;35738;49.890;5.930;2023-07-31T01:38:48;8.77;;;4.57;;
49840;SDS011;35738;49.890;5.930;2023-07-31T01:41:16;14.27;;;5.47;;
49840;SDS011;35738;49.890;5.930;2023-07-31T01:43:44;11.32;;;5.53;;
49840;SDS011;35738;49.890;5.930;2023-07-31T01:46:11;12.07;;;5.00;;
49840;SDS011;35738;49.890;5.930;2023-07-31T01:48:38;10.82;;;5.38;;
49840;SDS011;35738;49.890;5.930;2023-07-31T01:51:05;12.30;;;5.60;;
49840;SDS011;35738;49.890;5.930;2023-07-31T01:53:32;11.75;;;5.50;;
49840;SDS011;35738;49.890;5.930;2023-07-31T01:55:58;11.02;;;5.32;;
49840;SDS011;35738;49.890;5.930;2023-07-31T01:58:25;12.48;;;5.70;;
49840;SDS011;35738;49.890;5.930;2023-07-31T02:00:52;11.20;;;5.32;;
49840;SDS011;35738;49.890;5.930;2023-07-31T02:03:19;10.55;;;5.13;;
49840;SDS011;35738;49.890;5.930;2023-07-31T02:05:46;9.07;;;5.25;;
49840;SDS011;35738;49.890;5.930;2023-07-31T02:08:14;8.15;;;5.60;;
49840;SDS011;35738;49.890;5.930;2023-07-31T02:10:40;13.23;;;5.68;;
49840;SDS011;35738;49.890;5.930;2023-07-31T02:13:08;9.75;;;5.22;;
49840;SDS011;35738;49.890;5.930;2023-07-31T02:15:34;13.70;;;5.32;;
49840;SDS011;35738;49.890;5.930;2023-07-31T02:18:01;11.00;;;5.53;;
49840;SDS011;35738;49.890;5.930;2023-07-31T02:20:28;10.57;;;5.35;;
49840;SDS011;35738;49.890;5.930;2023-07-31T02:22:55;10.25;;;5.55;;
49840;SDS011;35738;49.890;5.930;2023-07-31T02:25:21;12.52;;;5.63;;
49840;SDS011;35738;49.890;5.930;2023-07-31T02:27:48;10.23;;;5.03;;
49840;SDS011;35738;49.890;5.930;2023-07-31T02:30:15;10.38;;;4.82;;
49840;SDS011;35738;49.890;5.930;2023-07-31T02:32:41;9.40;;;5.55;;
49840;SDS011;35738;49.890;5.930;2023-07-31T02:35:08;9.20;;;4.82;;
49840;SDS011;35738;49.890;5.930;2023-07-31T02:37:36;14.23;;;5.38;;
49840;SDS011;35738;49.890;5.930;2023-07-31T02:40:02;11.55;;;5.70;;
49840;SDS011;35738;49.890;5.930;2023-07-31T02:42:31;10.95;;;5.18;;
49840;SDS011;35738;49.890;5.930;2023-07-31T02:44:58;12.30;;;5.85;;
49840;SDS011;35738;49.890;5.930;2023-07-31T02:47:24;9.90;;;5.55;;
49840;SDS011;35738;49.890;5.930;2023-07-31T02:49:51;9.10;;;5.60;;
49840;SDS011;35738;49.890;5.930;2023-07-31T02:52:18;12.85;;;6.03;;
49840;SDS011;35738;49.890;5.930;2023-07-31T02:54:44;12.93;;;5.40;;
49840;SDS011;35738;49.890;5.930;2023-07-31T02:57:11;9.77;;;5.88;;
49840;SDS011;35738;49.890;5.930;2023-07-31T02:59:38;10.05;;;5.30;;
49840;SDS011;35738;49.890;5.930;2023-07-31T03:02:05;11.05;;;5.65;;
49840;SDS011;35738;49.890;5.930;2023-07-31T03:04:32;10.93;;;5.43;;
49840;SDS011;35738;49.890;5.930;2023-07-31T03:06:59;12.07;;;5.72;;
49840;SDS011;35738;49.890;5.930;2023-07-31T03:09:25;15.07;;;6.18;;
49840;SDS011;35738;49.890;5.930;2023-07-31T03:11:52;9.30;;;5.40;;
49840;SDS011;35738;49.890;5.930;2023-07-31T03:14:20;11.23;;;5.85;;
49840;SDS011;35738;49.890;5.930;2023-07-31T03:16:46;8.35;;;5.05;;
49840;SDS011;35738;49.890;5.930;2023-07-31T03:19:13;13.27;;;5.60;;
49840;SDS011;35738;49.890;5.930;2023-07-31T03:21:40;10.43;;;5.60;;
49840;SDS011;35738;49.890;5.930;2023-07-31T03:24:07;11.13;;;5.57;;
49840;SDS011;35738;49.890;5.930;2023-07-31T03:26:33;10.90;;;5.38;;
49840;SDS011;35738;49.890;5.930;2023-07-31T03:29:00;11.80;;;5.20;;
49840;SDS011;35738;49.890;5.930;2023-07-31T03:31:27;13.18;;;5.68;;
49840;SDS011;35738;49.890;5.930;2023-07-31T03:33:54;9.88;;;5.82;;
49840;SDS011;35738;49.890;5.930;2023-07-31T03:36:20;10.50;;;5.20;;
49840;SDS011;35738;49.890;5.930;2023-07-31T03:38:47;12.02;;;5.53;;
49840;SDS011;35738;49.890;5.930;2023-07-31T03:41:14;10.98;;;5.32;;
49840;SDS011;35738;49.890;5.930;2023-07-31T03:43:40;8.98;;;4.93;;
49840;SDS011;35738;49.890;5.930;2023-07-31T03:46:07;12.93;;;4.88;;
49840;SDS011;35738;49.890;5.930;2023-07-31T03:48:33;8.90;;;5.28;;
49840;SDS011;35738;49.890;5.930;2023-07-31T03:51:00;11.70;;;5.07;;
49840;SDS011;35738;49.890;5.930;2023-07-31T03:53:26;10.07;;;5.20;;
49840;SDS011;35738;49.890;5.930;2023-07-31T03:55:53;10.20;;;4.85;;
49840;SDS011;35738;49.890;5.930;2023-07-31T03:58:20;14.00;;;5.40;;
49840;SDS011;35738;49.890;5.930;2023-07-31T04:00:46;12.65;;;4.80;;
49840;SDS011;35738;49.890;5.930;2023-07-31T04:03:13;10.70;;;5.32;;
49840;SDS011;35738;49.890;5.930;2023-07-31T04:05:40;10.00;;;4.82;;
49840;SDS011;35738;49.890;5.930;2023-07-31T04:08:06;11.27;;;5.05;;
49840;SDS011;35738;49.890;5.930;2023-07-31T04:10:33;8.80;;;5.18;;
49840;SDS011;35738;49.890;5.930;2023-07-31T05:54:52;10.13;;;4.55;;
49840;SDS011;35738;49.890;5.930;2023-07-31T05:57:18;9.38;;;4.05;;
49840;SDS011;35738;49.890;5.930;2023-07-31T05:59:45;8.93;;;4.03;;
49840;SDS011;35738;49.890;5.930;2023-07-31T06:02:12;9.88;;;5.07;;
49840;SDS011;35738;49.890;5.930;2023-07-31T06:04:39;8.32;;;4.15;;
49840;SDS011;35738;49.890;5.930;2023-07-31T06:07:06;6.18;;;3.65;;
49840;SDS011;35738;49.890;5.930;2023-07-31T06:09:33;6.28;;;3.90;;
49840;SDS011;35738;49.890;5.930;2023-07-31T06:12:00;9.77;;;3.58;;
49840;SDS011;35738;49.890;5.930;2023-07-31T06:14:26;8.65;;;3.83;;
49840;SDS011;35738;49.890;5.930;2023-07-31T06:16:53;15.23;;;4.53;;
49840;SDS011;35738;49.890;5.930;2023-07-31T06:19:20;9.25;;;3.90;;
49840;SDS011;35738;49.890;5.930;2023-07-31T06:21:47;8.27;;;3.78;;
49840;SDS011;35738;49.890;5.930;2023-07-31T06:24:14;7.97;;;3.88;;
49840;SDS011;35738;49.890;5.930;2023-07-31T06:26:46;8.70;;;3.83;;
49840;SDS011;35738;49.890;5.930;2023-07-31T06:29:12;7.47;;;3.85;;
49840;SDS011;35738;49.890;5.930;2023-07-31T06:31:40;7.07;;;3.70;;
49840;SDS011;35738;49.890;5.930;2023-07-31T06:34:07;7.60;;;4.00;;
49840;SDS011;35738;49.890;5.930;2023-07-31T06:36:34;8.68;;;3.92;;
49840;SDS011;35738;49.890;5.930;2023-07-31T06:39:01;10.65;;;4.10;;
49840;SDS011;35738;49.890;5.930;2023-07-31T06:41:28;8.00;;;3.83;;
49840;SDS011;35738;49.890;5.930;2023-07-31T06:43:54;8.35;;;3.72;;
49840;SDS011;35738;49.890;5.930;2023-07-31T06:46:21;9.93;;;3.90;;
49840;SDS011;35738;49.890;5.930;2023-07-31T06:48:48;9.10;;;3.90;;
49840;SDS011;35738;49.890;5.930;2023-07-31T06:51:15;7.00;;;3.35;;
49840;SDS011;35738;49.890;5.930;2023-07-31T06:53:42;6.25;;;3.58;;
49840;SDS011;35738;49.890;5.930;2023-07-31T06:56:11;8.13;;;4.00;;
49840;SDS011;35738;49.890;5.930;2023-07-31T06:58:38;9.65;;;4.05;;
49840;SDS011;35738;49.890;5.930;2023-07-31T07:01:06;9.02;;;3.80;;
49840;SDS011;35738;49.890;5.930;2023-07-31T07:03:33;6.97;;;3.95;;
49840;SDS011;35738;49.890;5.930;2023-07-31T07:06:00;7.25;;;3.65;;
49840;SDS011;35738;49.890;5.930;2023-07-31T07:08:27;6.72;;;3.80;;
49840;SDS011;35738;49.890;5.930;2023-07-31T07:10:54;7.57;;;3.58;;
49840;SDS011;35738;49.890;5.930;2023-07-31T07:13:21;9.38;;;3.97;;
49840;SDS011;35738;49.890;5.930;2023-07-31T07:15:48;8.20;;;4.47;;
49840;SDS011;35738;49.890;5.930;2023-07-31T07:18:16;7.75;;;3.80;;
49840;SDS011;35738;49.890;5.930;2023-07-31T07:20:46;8.13;;;3.55;;
49840;SDS011;35738;49.890;5.930;2023-07-31T07:23:14;6.38;;;3.47;;
49840;SDS011;35738;49.890;5.930;2023-07-31T07:25:41;6.40;;;3.30;;
49840;SDS011;35738;49.890;5.930;2023-07-31T07:28:08;7.75;;;4.00;;
49840;SDS011;35738;49.890;5.930;2023-07-31T07:30:35;5.55;;;3.85;;
49840;SDS011;35738;49.890;5.930;2023-07-31T07:33:04;5.18;;;3.15;;
49840;SDS011;35738;49.890;5.930;2023-07-31T07:35:35;5.75;;;3.75;;
49840;SDS011;35738;49.890;5.930;2023-07-31T07:38:03;11.00;;;5.03;;
49840;SDS011;35738;49.890;5.930;2023-07-31T07:40:30;3.72;;;2.70;;
49840;SDS011;35738;49.890;5.930;2023-07-31T07:42:57;5.93;;;3.30;;
49840;SDS011;35738;49.890;5.930;2023-07-31T07:45:24;4.95;;;2.90;;
49840;SDS011;35738;49.890;5.930;2023-07-31T07:47:50;6.43;;;3.00;;
49840;SDS011;35738;49.890;5.930;2023-07-31T07:50:17;5.53;;;2.92;;
49840;SDS011;35738;49.890;5.930;2023-07-31T07:52:44;7.20;;;3.10;;
49840;SDS011;35738;49.890;5.930;2023-07-31T07:55:10;4.47;;;2.88;;
49840;SDS011;35738;49.890;5.930;2023-07-31T07:57:37;5.15;;;2.60;;
49840;SDS011;35738;49.890;5.930;2023-07-31T08:00:04;5.68;;;2.80;;
49840;SDS011;35738;49.890;5.930;2023-07-31T08:02:32;3.15;;;2.25;;
49840;SDS011;35738;49.890;5.930;2023-07-31T08:04:59;4.30;;;2.42;;
49840;SDS011;35738;49.890;5.930;2023-07-31T08:07:25;4.30;;;2.55;;
49840;SDS011;35738;49.890;5.930;2023-07-31T08:09:52;3.45;;;2.30;;
49840;SDS011;35738;49.890;5.930;2023-07-31T08:12:19;4.43;;;2.65;;
49840;SDS011;35738;49.890;5.930;2023-07-31T08:14:45;4.15;;;2.47;;
49840;SDS011;35738;49.890;5.930;2023-07-31T08:17:13;3.20;;;2.75;;
49840;SDS011;35738;49.890;5.930;2023-07-31T08:19:40;5.82;;;2.55;;
49840;SDS011;35738;49.890;5.930;2023-07-31T08:22:07;4.75;;;2.63;;
49840;SDS011;35738;49.890;5.930;2023-07-31T08:24:33;3.65;;;2.80;;
49840;SDS011;35738;49.890;5.930;2023-07-31T08:27:00;5.55;;;2.60;;
49840;SDS011;35738;49.890;5.930;2023-07-31T08:29:27;6.72;;;2.60;;
49840;SDS011;35738;49.890;5.930;2023-07-31T08:31:54;6.38;;;2.75;;
49840;SDS011;35738;49.890;5.930;2023-07-31T08:34:23;2.67;;;2.28;;
49840;SDS011;35738;49.890;5.930;2023-07-31T08:36:49;5.32;;;2.85;;
49840;SDS011;35738;49.890;5.930;2023-07-31T08:39:16;5.18;;;2.60;;
49840;SDS011;35738;49.890;5.930;2023-07-31T08:41:42;4.75;;;2.70;;
49840;SDS011;35738;49.890;5.930;2023-07-31T08:44:10;3.50;;;2.70;;
49840;SDS011;35738;49.890;5.930;2023-07-31T08:46:37;4.03;;;2.50;;
49840;SDS011;35738;49.890;5.930;2023-07-31T08:49:04;5.60;;;2.67;;
49840;SDS011;35738;49.890;5.930;2023-07-31T08:51:35;4.97;;;2.95;;
49840;SDS011;35738;49.890;5.930;2023-07-31T08:54:02;3.97;;;2.45;;
49840;SDS011;35738;49.890;5.930;2023-07-31T08:56:32;3.58;;;2.53;;
49840;SDS011;35738;49.890;5.930;2023-07-31T08:59:01;5.75;;;2.50;;
49840;SDS011;35738;49.890;5.930;2023-07-31T09:01:31;3.33;;;2.50;;
49840;SDS011;35738;49.890;5.930;2023-07-31T09:04:02;3.92;;;2.65;;
49840;SDS011;35738;49.890;5.930;2023-07-31T09:06:31;4.75;;;2.50;;
49840;SDS011;35738;49.890;5.930;2023-07-31T09:08:58;5.72;;;2.50;;
49840;SDS011;35738;49.890;5.930;2023-07-31T09:11:25;4.40;;;2.55;;
49840;SDS011;35738;49.890;5.930;2023-07-31T09:13:52;5.63;;;2.63;;
49840;SDS011;35738;49.890;5.930;2023-07-31T09:16:28;4.25;;;2.40;;
49840;SDS011;35738;49.890;5.930;2023-07-31T09:18:58;5.15;;;2.45;;
49840;SDS011;35738;49.890;5.930;2023-07-31T09:21:28;5.13;;;2.53;;
49840;SDS011;35738;49.890;5.930;2023-07-31T09:23:55;5.38;;;2.60;;
49840;SDS011;35738;49.890;5.930;2023-07-31T09:26:35;3.25;;;2.33;;
49840;SDS011;35738;49.890;5.930;2023-07-31T09:29:04;5.10;;;2.50;;
49840;SDS011;35738;49.890;5.930;2023-07-31T09:31:41;3.75;;;2.55;;
49840;SDS011;35738;49.890;5.930;2023-07-31T09:34:09;4.82;;;2.30;;
49840;SDS011;35738;49.890;5.930;2023-07-31T09:36:41;3.97;;;2.20;;
49840;SDS011;35738;49.890;5.930;2023-07-31T09:39:09;3.25;;;1.95;;
49840;SDS011;35738;49.890;5.930;2023-07-31T09:41:37;4.65;;;2.45;;
49840;SDS011;35738;49.890;5.930;2023-07-31T09:44:08;3.78;;;2.65;;
49840;SDS011;35738;49.890;5.930;2023-07-31T09:46:35;2.15;;;2.00;;
49840;SDS011;35738;49.890;5.930;2023-07-31T09:49:09;3.15;;;2.13;;
49840;SDS011;35738;49.890;5.930;2023-07-31T09:51:38;2.90;;;2.08;;
49840;SDS011;35738;49.890;5.930;2023-07-31T09:54:10;3.35;;;1.80;;
49840;SDS011;35738;49.890;5.930;2023-07-31T09:56:45;2.63;;;1.70;;
49840;SDS011;35738;49.890;5.930;2023-07-31T09:59:14;3.45;;;1.80;;
49840;SDS011;35738;49.890;5.930;2023-07-31T10:01:42;1.88;;;1.40;;
49840;SDS011;35738;49.890;5.930;2023-07-31T10:04:10;2.30;;;1.60;;
49840;SDS011;35738;49.890;5.930;2023-07-31T10:06:39;1.77;;;1.35;;
49840;SDS011;35738;49.890;5.930;2023-07-31T10:09:08;2.20;;;1.50;;
49840;SDS011;35738;49.890;5.930;2023-07-31T10:11:38;1.38;;;1.35;;
49840;SDS011;35738;49.890;5.930;2023-07-31T10:14:10;3.35;;;1.58;;
49840;SDS011;35738;49.890;5.930;2023-07-31T10:16:38;1.50;;;1.40;;
49840;SDS011;35738;49.890;5.930;2023-07-31T10:19:06;1.48;;;1.38;;
49840;SDS011;35738;49.890;5.930;2023-07-31T10:21:34;2.13;;;1.40;;
49840;SDS011;35738;49.890;5.930;2023-07-31T10:24:04;1.60;;;1.50;;
49840;SDS011;35738;49.890;5.930;2023-07-31T10:26:32;1.48;;;1.38;;
49840;SDS011;35738;49.890;5.930;2023-07-31T10:29:00;1.70;;;1.60;;
49840;SDS011;35738;49.890;5.930;2023-07-31T10:31:27;2.38;;;1.73;;
49840;SDS011;35738;49.890;5.930;2023-07-31T10:33:55;2.67;;;1.92;;
49840;SDS011;35738;49.890;5.930;2023-07-31T10:36:26;1.80;;;1.70;;
49840;SDS011;35738;49.890;5.930;2023-07-31T10:38:54;2.40;;;2.00;;
49840;SDS011;35738;49.890;5.930;2023-07-31T10:41:29;4.72;;;2.20;;
49840;SDS011;35738;49.890;5.930;2023-07-31T10:43:58;2.30;;;2.00;;
49840;SDS011;35738;49.890;5.930;2023-07-31T10:46:27;2.38;;;2.10;;
49840;SDS011;35738;49.890;5.930;2023-07-31T10:48:58;2.97;;;1.98;;
49840;SDS011;35738;49.890;5.930;2023-07-31T10:51:35;2.85;;;2.20;;
49840;SDS011;35738;49.890;5.930;2023-07-31T10:54:15;3.70;;;2.50;;
49840;SDS011;35738;49.890;5.930;2023-07-31T10:56:45;2.50;;;2.30;;
49840;SDS011;35738;49.890;5.930;2023-07-31T10:59:13;5.15;;;2.50;;
49840;SDS011;35738;49.890;5.930;2023-07-31T11:01:52;3.20;;;2.40;;
49840;SDS011;35738;49.890;5.930;2023-07-31T11:04:23;2.75;;;2.35;;
49840;SDS011;35738;49.890;5.930;2023-07-31T11:07:01;2.40;;;2.13;;
49840;SDS011;35738;49.890;5.930;2023-07-31T11:09:30;2.20;;;2.00;;
49840;SDS011;35738;49.890;5.930;2023-07-31T11:11:59;2.10;;;2.00;;
49840;SDS011;35738;49.890;5.930;2023-07-31T11:14:26;2.30;;;2.10;;
49840;SDS011;35738;49.890;5.930;2023-07-31T11:16:53;2.83;;;2.50;;
49840;SDS011;35738;49.890;5.930;2023-07-31T11:19:26;2.90;;;2.60;;
49840;SDS011;35738;49.890;5.930;2023-07-31T11:21:53;4.63;;;2.70;;
49840;SDS011;35738;49.890;5.930;2023-07-31T11:24:20;2.97;;;2.67;;
49840;SDS011;35738;49.890;5.930;2023-07-31T11:26:53;6.35;;;3.67;;
49840;SDS011;35738;49.890;5.930;2023-07-31T11:29:20;5.43;;;4.00;;
49840;SDS011;35738;49.890;5.930;2023-07-31T11:31:47;6.53;;;5.00;;
49840;SDS011;35738;49.890;5.930;2023-07-31T11:34:15;6.28;;;4.78;;
49840;SDS011;35738;49.890;5.930;2023-07-31T11:36:52;7.05;;;4.35;;
49840;SDS011;35738;49.890;5.930;2023-07-31T11:39:19;9.13;;;4.60;;
49840;SDS011;35738;49.890;5.930;2023-07-31T11:41:46;6.90;;;4.45;;
49840;SDS011;35738;49.890;5.930;2023-07-31T11:44:12;6.63;;;4.07;;
49840;SDS011;35738;49.890;5.930;2023-07-31T11:46:56;6.72;;;4.03;;
49840;SDS011;35738;49.890;5.930;2023-07-31T11:49:23;5.47;;;3.90;;
49840;SDS011;35738;49.890;5.930;2023-07-31T11:51:49;5.70;;;3.70;;
49840;SDS011;35738;49.890;5.930;2023-07-31T11:54:16;5.47;;;3.65;;
49840;SDS011;35738;49.890;5.930;2023-07-31T11:56:43;7.13;;;3.50;;
49840;SDS011;35738;49.890;5.930;2023-07-31T11:59:10;4.22;;;3.20;;
49840;SDS011;35738;49.890;5.930;2023-07-31T12:01:39;3.90;;;3.50;;
49840;SDS011;35738;49.890;5.930;2023-07-31T12:04:06;3.60;;;3.25;;
49840;SDS011;35738;49.890;5.930;2023-07-31T12:06:34;3.38;;;3.08;;
49840;SDS011;35738;49.890;5.930;2023-07-31T12:09:04;3.25;;;2.60;;
49840;SDS011;35738;49.890;5.930;2023-07-31T12:11:42;2.60;;;2.40;;
49840;SDS011;35738;49.890;5.930;2023-07-31T12:14:23;2.22;;;2.08;;
49840;SDS011;35738;49.890;5.930;2023-07-31T12:16:59;2.40;;;2.00;;
49840;SDS011;35738;49.890;5.930;2023-07-31T12:19:27;1.98;;;1.40;;
49840;SDS011;35738;49.890;5.930;2023-07-31T12:21:57;1.45;;;1.35;;
49840;SDS011;35738;49.890;5.930;2023-07-31T12:24:28;1.40;;;1.38;;
49840;SDS011;35738;49.890;5.930;2023-07-31T12:26:54;1.45;;;1.35;;
49840;SDS011;35738;49.890;5.930;2023-07-31T12:29:21;2.58;;;1.60;;
49840;SDS011;35738;49.890;5.930;2023-07-31T12:31:48;1.80;;;1.60;;
49840;SDS011;35738;49.890;5.930;2023-07-31T12:34:16;2.50;;;1.70;;
49840;SDS011;35738;49.890;5.930;2023-07-31T12:36:44;1.60;;;1.50;;
49840;SDS011;35738;49.890;5.930;2023-07-31T12:39:11;2.15;;;1.60;;
49840;SDS011;35738;49.890;5.930;2023-07-31T12:41:37;2.72;;;2.00;;
49840;SDS011;35738;49.890;5.930;2023-07-31T12:44:04;1.70;;;1.60;;
49840;SDS011;35738;49.890;5.930;2023-07-31T12:46:31;2.88;;;1.80;;
49840;SDS011;35738;49.890;5.930;2023-07-31T12:48:57;2.10;;;1.90;;
49840;SDS011;35738;49.890;5.930;2023-07-31T12:51:24;2.40;;;2.08;;
49840;SDS011;35738;49.890;5.930;2023-07-31T12:53:51;2.83;;;2.35;;
49840;SDS011;35738;49.890;5.930;2023-07-31T12:56:18;2.58;;;2.38;;
49840;SDS011;35738;49.890;5.930;2023-07-31T12:58:44;3.03;;;2.47;;
49840;SDS011;35738;49.890;5.930;2023-07-31T13:01:11;4.35;;;3.00;;
49840;SDS011;35738;49.890;5.930;2023-07-31T13:03:38;6.35;;;4.13;;
49840;SDS011;35738;49.890;5.930;2023-07-31T13:06:05;8.05;;;4.65;;
49840;SDS011;35738;49.890;5.930;2023-07-31T13:08:32;7.50;;;4.85;;
49840;SDS011;35738;49.890;5.930;2023-07-31T13:10:58;8.77;;;4.90;;
49840;SDS011;35738;49.890;5.930;2023-07-31T13:13:25;7.97;;;5.00;;
49840;SDS011;35738;49.890;5.930;2023-07-31T13:15:52;13.23;;;5.80;;
49840;SDS011;35738;49.890;5.930;2023-07-31T13:18:19;11.68;;;5.88;;
49840;SDS011;35738;49.890;5.930;2023-07-31T13:20:46;11.00;;;6.40;;
49840;SDS011;35738;49.890;5.930;2023-07-31T13:23:14;11.90;;;6.10;;
49840;SDS011;35738;49.890;5.930;2023-07-31T13:25:43;13.52;;;6.90;;
49840;SDS011;35738;49.890;5.930;2023-07-31T13:28:11;15.95;;;6.57;;
49840;SDS011;35738;49.890;5.930;2023-07-31T13:30:38;14.05;;;6.40;;
49840;SDS011;35738;49.890;5.930;2023-07-31T13:33:05;12.90;;;6.45;;
49840;SDS011;35738;49.890;5.930;2023-07-31T13:35:43;13.13;;;7.15;;
49840;SDS011;35738;49.890;5.930;2023-07-31T13:38:09;16.08;;;6.82;;
49840;SDS011;35738;49.890;5.930;2023-07-31T13:40:36;11.40;;;6.60;;
49840;SDS011;35738;49.890;5.930;2023-07-31T13:43:03;16.83;;;7.40;;
49840;SDS011;35738;49.890;5.930;2023-07-31T13:45:29;11.48;;;6.82;;
49840;SDS011;35738;49.890;5.930;2023-07-31T13:47:56;15.00;;;7.22;;
49840;SDS011;35738;49.890;5.930;2023-07-31T13:50:23;13.63;;;6.82;;
49840;SDS011;35738;49.890;5.930;2023-07-31T13:52:51;16.27;;;7.40;;
49840;SDS011;35738;49.890;5.930;2023-07-31T13:55:18;13.27;;;6.95;;
49840;SDS011;35738;49.890;5.930;2023-07-31T13:57:45;15.88;;;7.47;;
49840;SDS011;35738;49.890;5.930;2023-07-31T14:00:12;14.68;;;7.28;;
49840;SDS011;35738;49.890;5.930;2023-07-31T14:02:39;11.98;;;7.07;;
49840;SDS011;35738;49.890;5.930;2023-07-31T14:05:06;16.42;;;7.95;;
49840;SDS011;35738;49.890;5.930;2023-07-31T14:07:36;12.95;;;7.10;;
49840;SDS011;35738;49.890;5.930;2023-07-31T14:10:02;13.07;;;6.95;;
49840;SDS011;35738;49.890;5.930;2023-07-31T14:12:30;13.48;;;6.88;;
49840;SDS011;35738;49.890;5.930;2023-07-31T14:15:08;14.73;;;7.28;;
49840;SDS011;35738;49.890;5.930;2023-07-31T14:17:36;12.82;;;7.28;;
49840;SDS011;35738;49.890;5.930;2023-07-31T14:20:03;14.70;;;6.65;;
49840;SDS011;35738;49.890;5.930;2023-07-31T14:22:31;16.77;;;7.45;;
49840;SDS011;35738;49.890;5.930;2023-07-31T14:24:59;14.57;;;7.25;;
49840;SDS011;35738;49.890;5.930;2023-07-31T14:27:26;13.70;;;6.97;;
49840;SDS011;35738;49.890;5.930;2023-07-31T14:29:53;17.58;;;7.43;;
49840;SDS011;35738;49.890;5.930;2023-07-31T14:32:21;13.13;;;7.70;;
49840;SDS011;35738;49.890;5.930;2023-07-31T14:34:53;14.35;;;6.75;;
49840;SDS011;35738;49.890;5.930;2023-07-31T14:37:21;13.43;;;7.10;;
49840;SDS011;35738;49.890;5.930;2023-07-31T14:39:48;15.73;;;7.60;;
49840;SDS011;35738;49.890;5.930;2023-07-31T14:42:17;14.23;;;7.80;;
49840;SDS011;35738;49.890;5.930;2023-07-31T14:44:44;15.13;;;7.15;;
49840;SDS011;35738;49.890;5.930;2023-07-31T14:47:13;14.82;;;7.78;;
49840;SDS011;35738;49.890;5.930;2023-07-31T14:49:40;16.40;;;7.57;;
49840;SDS011;35738;49.890;5.930;2023-07-31T14:52:07;16.88;;;8.18;;
49840;SDS011;35738;49.890;5.930;2023-07-31T14:54:34;14.23;;;6.95;;
49840;SDS011;35738;49.890;5.930;2023-07-31T14:57:01;15.40;;;7.30;;
49840;SDS011;35738;49.890;5.930;2023-07-31T14:59:27;14.60;;;7.07;;
49840;SDS011;35738;49.890;5.930;2023-07-31T15:01:54;10.88;;;6.75;;
49840;SDS011;35738;49.890;5.930;2023-07-31T15:04:23;12.15;;;6.78;;
49840;SDS011;35738;49.890;5.930;2023-07-31T15:06:50;12.05;;;7.00;;
49840;SDS011;35738;49.890;5.930;2023-07-31T15:09:18;10.80;;;6.00;;
49840;SDS011;35738;49.890;5.930;2023-07-31T15:11:45;10.95;;;6.43;;
49840;SDS011;35738;49.890;5.930;2023-07-31T15:14:11;11.18;;;6.30;;
49840;SDS011;35738;49.890;5.930;2023-07-31T15:16:42;9.55;;;5.85;;
49840;SDS011;35738;49.890;5.930;2023-07-31T15:19:09;11.10;;;6.00;;
49840;SDS011;35738;49.890;5.930;2023-07-31T15:21:37;10.02;;;5.80;;
49840;SDS011;35738;49.890;5.930;2023-07-31T15:24:04;12.20;;;6.60;;
49840;SDS011;35738;49.890;5.930;2023-07-31T15:26:32;11.75;;;6.28;;
49840;SDS011;35738;49.890;5.930;2023-07-31T15:29:04;11.13;;;6.53;;
49840;SDS011;35738;49.890;5.930;2023-07-31T15:31:35;10.32;;;5.72;;
49840;SDS011;35738;49.890;5.930;2023-07-31T15:34:02;9.13;;;5.55;;
49840;SDS011;35738;49.890;5.930;2023-07-31T15:36:29;10.88;;;6.10;;
49840;SDS011;35738;49.890;5.930;2023-07-31T15:38:56;11.02;;;6.13;;
49840;SDS011;35738;49.890;5.930;2023-07-31T15:41:23;10.50;;;5.80;;
49840;SDS011;35738;49.890;5.930;2023-07-31T15:43:52;12.77;;;6.13;;
49840;SDS011;35738;49.890;5.930;2023-07-31T15:46:20;12.43;;;5.97;;
49840;SDS011;35738;49.890;5.930;2023-07-31T15:48:48;9.63;;;5.60;;
49840;SDS011;35738;49.890;5.930;2023-07-31T15:51:15;9.57;;;6.10;;
49840;SDS011;35738;49.890;5.930;2023-07-31T15:53:42;10.20;;;5.78;;
49840;SDS011;35738;49.890;5.930;2023-07-31T15:56:08;12.68;;;5.80;;
49840;SDS011;35738;49.890;5.930;2023-07-31T15:58:35;9.43;;;5.90;;
49840;SDS011;35738;49.890;5.930;2023-07-31T16:01:02;10.95;;;6.60;;
49840;SDS011;35738;49.890;5.930;2023-07-31T16:03:29;12.80;;;6.93;;
49840;SDS011;35738;49.890;5.930;2023-07-31T16:05:55;11.98;;;7.10;;
49840;SDS011;35738;49.890;5.930;2023-07-31T16:08:22;12.82;;;6.63;;
49840;SDS011;35738;49.890;5.930;2023-07-31T16:10:49;13.27;;;7.40;;
49840;SDS011;35738;49.890;5.930;2023-07-31T16:13:16;13.25;;;7.10;;
49840;SDS011;35738;49.890;5.930;2023-07-31T16:15:43;11.27;;;6.60;;
49840;SDS011;35738;49.890;5.930;2023-07-31T16:18:10;13.73;;;6.60;;
49840;SDS011;35738;49.890;5.930;2023-07-31T16:20:36;12.68;;;6.38;;
49840;SDS011;35738;49.890;5.930;2023-07-31T16:23:03;32.47;;;19.27;;
49840;SDS011;35738;49.890;5.930;2023-07-31T16:25:30;12.43;;;7.13;;
49840;SDS011;35738;49.890;5.930;2023-07-31T16:27:57;10.23;;;5.55;;
49840;SDS011;35738;49.890;5.930;2023-07-31T16:30:24;7.18;;;5.22;;
49840;SDS011;35738;49.890;5.930;2023-07-31T16:32:51;9.60;;;5.60;;
49840;SDS011;35738;49.890;5.930;2023-07-31T16:35:18;9.23;;;5.90;;
49840;SDS011;35738;49.890;5.930;2023-07-31T16:37:45;13.73;;;6.18;;